Time;durP1;ratioP1;P1;durP2;ratioP2;P2;SDS_P1;SDS_P2;PMS_P1;PMS_P2;Temp;Humidity;BMP_temperature;BMP_pressure;BME280_temperature;BME280_humidity;BME280_pressure;Samples;Min_cycle;Max_cycle;Signal;HPM_P1;HPM_P2
2022/03/26 00:02:14;;;;;;;13.02;5.47;;;;;;;13.12;30.65;100829.31;7765154;32;40059;-80
2022/03/26 00:06:32;;;;;;;10.13;4.85;;;;;;;13.02;30.67;100823.75;7765165;32;40820;-80
2022/03/26 00:10:48;;;;;;;17.08;4.75;;;;;;;13.09;30.57;100821.59;7765168;32;37703;-80
2022/03/26 00:15:04;;;;;;;11.90;4.87;;;;;;;13.08;30.71;100811.72;7765298;32;36900;-79
2022/03/26 00:19:21;;;;;;;9.18;4.37;;;;;;;13.10;30.58;100812.28;7765189;32;40132;-80
2022/03/26 00:23:37;;;;;;;11.70;4.65;;;;;;;13.15;30.57;100815.06;7751259;32;40000;-79
2022/03/26 00:27:53;;;;;;;11.35;4.57;;;;;;;13.14;30.59;100809.84;7765066;32;38848;-80
2022/03/26 00:32:09;;;;;;;12.18;5.05;;;;;;;12.99;31.01;100807.84;7765030;32;37243;-80
2022/03/26 00:36:25;;;;;;;11.48;5.68;;;;;;;13.10;30.90;100811.47;7764987;32;39954;-80
2022/03/26 00:40:41;;;;;;;14.30;5.22;;;;;;;12.50;31.83;100814.28;7764894;32;39911;-79
2022/03/26 00:44:57;;;;;;;9.85;4.65;;;;;;;12.76;31.49;100807.13;7750870;32;38051;-80
2022/03/26 00:49:14;;;;;;;12.40;5.45;;;;;;;12.89;31.33;100807.78;7764945;32;37200;-79
2022/03/26 00:53:30;;;;;;;9.50;4.85;;;;;;;12.80;31.62;100806.59;7764782;32;39270;-79
2022/03/26 00:57:46;;;;;;;17.00;5.93;;;;;;;12.67;31.78;100810.59;7764557;32;40772;-80
2022/03/26 01:02:02;;;;;;;14.98;5.95;;;;;;;12.58;31.92;100813.00;7764633;32;38676;-80
2022/03/26 01:06:19;;;;;;;15.80;6.12;;;;;;;12.58;31.98;100810.25;7750778;32;37114;-80
2022/03/26 01:10:35;;;;;;;12.60;5.80;;;;;;;12.49;32.17;100809.91;7764299;32;40146;-79
2022/03/26 01:14:52;;;;;;;17.62;6.10;;;;;;;12.24;32.64;100796.00;7764269;32;40799;-80
2022/03/26 01:19:08;;;;;;;12.13;5.50;;;;;;;12.22;32.82;100798.97;7750531;32;38695;-80
2022/03/26 01:23:24;;;;;;;14.85;5.32;;;;;;;12.05;33.17;100809.19;7764183;32;37236;-80
2022/03/26 01:27:40;;;;;;;11.35;5.30;;;;;;;12.31;32.85;100802.87;7750266;32;39342;-80
2022/03/26 01:31:56;;;;;;;11.48;5.62;;;;;;;12.28;32.91;100792.50;7763839;32;40146;-80
2022/03/26 01:36:13;;;;;;;15.88;5.15;;;;;;;12.12;33.17;100798.88;7763805;32;38010;-80
2022/03/26 01:40:29;;;;;;;12.27;4.97;;;;;;;12.26;33.04;100789.16;7749969;32;37961;-80
2022/03/26 01:44:45;;;;;;;13.13;5.25;;;;;;;12.23;33.14;100789.72;7763665;32;39476;-80
2022/03/26 01:49:02;;;;;;;11.82;5.18;;;;;;;12.21;33.22;100783.66;7763537;32;39675;-80
2022/03/26 01:53:18;;;;;;;15.88;4.95;;;;;;;12.25;33.08;100790.25;7763314;32;37763;-80
2022/03/26 01:57:34;;;;;;;12.48;5.10;;;;;;;12.26;33.13;100793.81;7763474;32;37201;-80
2022/03/26 02:01:50;;;;;;;11.02;5.22;;;;;;;12.19;33.27;100788.56;7763097;32;39903;-80
2022/03/26 02:06:06;;;;;;;9.23;5.00;;;;;;;12.19;33.36;100794.03;7763134;32;40754;-80
2022/03/26 02:10:22;;;;;;;14.43;4.78;;;;;;;12.16;33.41;100789.09;7762882;32;38040;-80
2022/03/26 02:14:39;;;;;;;9.90;4.85;;;;;;;12.23;33.37;100777.94;7762868;32;37481;-80
2022/03/26 02:18:55;;;;;;;12.48;5.28;;;;;;;11.88;33.93;100787.38;7763183;32;39437;-80
2022/03/26 02:23:11;;;;;;;14.32;6.40;;;;;;;11.99;34.09;100781.81;7766461;32;40035;-80
2022/03/26 02:27:29;;;;;;;11.95;5.85;;;;;;;11.54;36.85;100784.78;7766409;32;37905;-80
2022/03/26 02:31:45;;;;;;;14.73;5.35;;;;;;;11.48;36.28;100786.63;7766565;32;35979;-80
2022/03/26 02:36:01;;;;;;;12.50;5.82;;;;;;;11.13;36.57;100787.00;7766286;32;40070;-79
2022/03/26 02:40:19;;;;;;;10.80;5.22;;;;;;;11.09;37.18;100789.41;7752438;32;40608;-80
2022/03/26 02:44:35;;;;;;;10.50;4.80;;;;;;;11.28;35.48;100788.03;7766268;32;38166;-80
2022/03/26 02:48:51;;;;;;;10.73;4.90;;;;;;;11.42;35.13;100784.94;7766285;32;37204;-80
2022/03/26 02:53:07;;;;;;;9.18;4.20;;;;;;;11.50;34.98;100789.94;7766071;32;40007;-80
2022/03/26 02:57:23;;;;;;;12.63;5.00;;;;;;;11.45;34.97;100784.41;7766020;32;39556;-80
2022/03/26 03:01:39;;;;;;;11.07;5.93;;;;;;;11.52;34.73;100779.59;7766049;32;37929;-80
2022/03/26 03:05:56;;;;;;;15.82;6.62;;;;;;;11.28;38.21;100784.47;7766141;32;36899;-80
2022/03/26 03:10:15;;;;;;;15.80;6.68;;;;;;;10.52;41.64;100783.06;7752096;32;39188;-80
2022/03/26 03:14:32;;;;;;;15.85;5.68;;;;;;;10.50;39.92;100787.94;7765891;32;40740;-80
2022/03/26 03:18:48;;;;;;;12.15;5.85;;;;;;;10.70;37.98;100786.59;7765788;32;38555;-79
2022/03/26 03:23:05;;;;;;;11.50;5.43;;;;;;;10.54;37.67;100782.81;7765906;32;37836;-80
2022/03/26 03:27:21;;;;;;;15.88;6.20;;;;;;;10.15;38.43;100785.38;7765955;32;39275;-80
2022/03/26 03:31:38;;;;;;;15.23;5.37;;;;;;;10.47;37.34;100780.25;7764615;32;39971;-80
2022/03/26 03:35:55;;;;;;;11.20;5.15;;;;;;;10.48;37.27;100784.59;7765462;32;38698;-80
2022/03/26 03:40:13;;;;;;;12.88;6.10;;;;;;;10.34;37.28;100791.47;7765613;32;38069;-80
2022/03/26 03:44:30;;;;;;;11.07;5.18;;;;;;;10.45;37.18;100796.03;7765611;32;39449;-80
2022/03/26 03:48:46;;;;;;;13.82;5.72;;;;;;;10.28;37.45;100786.97;7765515;32;40611;-79
2022/03/26 03:53:02;;;;;;;14.82;5.60;;;;;;;10.25;37.38;100788.28;7765394;32;37818;-80
2022/03/26 03:57:18;;;;;;;16.35;5.75;;;;;;;10.41;36.85;100789.41;7765385;32;37036;-80
2022/03/26 04:01:35;;;;;;;14.13;6.53;;;;;;;9.85;38.88;100788.31;7765414;32;40020;-79
2022/03/26 04:05:51;;;;;;;10.98;6.07;;;;;;;9.96;38.82;100796.44;7751359;32;40068;-80
2022/03/26 04:10:09;;;;;;;12.55;6.07;;;;;;;9.75;39.05;100800.69;7765246;32;38558;-80
2022/03/26 04:14:25;;;;;;;13.38;5.37;;;;;;;9.57;40.49;100809.84;7765301;32;37796;-80
2022/03/26 04:18:41;;;;;;;11.77;5.72;;;;;;;9.67;40.57;100808.41;7765188;32;40084;-80
2022/03/26 04:22:57;;;;;;;12.45;6.05;;;;;;;9.41;41.77;100816.03;7765203;32;39954;-80
2022/03/26 04:27:13;;;;;;;14.00;6.75;;;;;;;9.25;42.61;100817.59;7765142;32;37887;-80
2022/03/26 04:31:29;;;;;;;12.00;6.07;;;;;;;9.16;42.52;100822.56;7765195;32;37804;-79
2022/03/26 04:35:46;;;;;;;15.15;7.10;;;;;;;9.14;42.07;100812.97;7765140;32;39203;-80
2022/03/26 04:40:06;;;;;;;15.18;6.78;;;;;;;8.86;43.09;100828.09;7765053;32;40963;-79
2022/03/26 04:44:22;;;;;;;13.90;7.62;;;;;;;9.01;42.58;100833.91;7764469;32;38560;-80
2022/03/26 04:48:38;;;;;;;14.10;6.93;;;;;;;8.61;43.75;100836.47;7764764;32;37052;-79
2022/03/26 04:52:54;;;;;;;11.60;6.00;;;;;;;8.59;43.15;100831.25;7764780;32;39133;-80
2022/03/26 04:57:10;;;;;;;12.98;5.93;;;;;;;8.60;42.62;100832.91;7764484;32;39924;-80
2022/03/26 05:01:26;;;;;;;10.30;5.70;;;;;;;8.79;42.20;100832.81;7764528;32;38655;-80
2022/03/26 05:05:43;;;;;;;17.70;6.53;;;;;;;8.83;42.33;100842.19;7764569;32;37460;-80
2022/03/26 05:09:59;;;;;;;15.07;6.22;;;;;;;8.86;42.48;100832.72;7764624;32;40077;-80
2022/03/26 05:14:16;;;;;;;14.35;6.68;;;;;;;8.75;42.61;100823.50;7764392;32;39982;-80
2022/03/26 05:18:32;;;;;;;14.02;6.15;;;;;;;8.59;43.81;100839.41;7764239;32;37863;-80
2022/03/26 05:22:49;;;;;;;11.82;6.30;;;;;;;8.72;43.14;100840.28;7764417;32;37117;-80
2022/03/26 05:27:05;;;;;;;12.32;5.45;;;;;;;8.62;43.75;100858.00;7764406;32;40018;-80
2022/03/26 05:31:21;;;;;;;15.60;6.37;;;;;;;8.52;43.67;100856.88;7764087;32;39850;-79
2022/03/26 05:35:37;;;;;;;14.60;5.87;;;;;;;8.69;42.95;100852.41;7763943;32;37875;-80
2022/03/26 05:39:53;;;;;;;12.18;6.15;;;;;;;8.59;43.03;100850.28;7763985;32;36957;-80
2022/03/26 05:44:09;;;;;;;12.07;5.85;;;;;;;8.69;42.80;100852.41;7763721;32;39264;-80
2022/03/26 05:48:25;;;;;;;13.40;6.12;;;;;;;8.88;42.67;100855.88;7763903;32;39879;-80
2022/03/26 05:52:41;;;;;;;16.35;7.93;;;;;;;8.95;42.85;100867.50;7763585;32;38626;-80
2022/03/26 05:56:57;;;;;;;15.95;7.22;;;;;;;8.80;42.50;100869.84;7766172;32;36856;-80
2022/03/26 06:01:13;;;;;;;16.80;8.23;;;;;;;8.81;43.16;100871.47;7766982;32;39255;-79
2022/03/26 06:05:30;;;;;;;22.70;8.07;;;;;;;8.64;44.21;100874.88;7766952;32;39927;-80
2022/03/26 06:09:46;;;;;;;16.42;8.38;;;;;;;8.81;43.54;100882.34;7766751;32;37903;-80
2022/03/26 06:14:03;;;;;;;20.55;8.55;;;;;;;9.07;42.61;100881.13;7766681;32;37926;-80
2022/03/26 06:18:19;;;;;;;18.95;8.02;;;;;;;9.11;42.59;100885.03;7766830;32;39426;-80
2022/03/26 06:22:35;;;;;;;15.57;7.80;;;;;;;9.09;42.58;100881.72;7766652;32;40033;-80
2022/03/26 06:26:51;;;;;;;16.05;8.18;;;;;;;9.44;41.87;100891.78;7752568;32;37942;-80
2022/03/26 06:31:08;;;;;;;15.77;8.18;;;;;;;9.57;41.21;100896.12;7766526;32;38087;-80
2022/03/26 06:35:24;;;;;;;15.95;7.22;;;;;;;9.58;40.77;100893.16;7766490;32;39399;-80
2022/03/26 06:39:41;;;;;;;18.35;7.97;;;;;;;9.54;41.42;100902.06;7766431;32;39994;-80
2022/03/26 06:43:57;;;;;;;18.02;7.72;;;;;;;9.53;41.92;100908.56;7766034;32;38739;-80
2022/03/26 06:48:12;;;;;;;16.15;7.35;;;;;;;10.02;40.53;100900.06;7766372;32;37188;-80
2022/03/26 06:52:29;;;;;;;18.17;8.70;;;;;;;10.37;39.09;100893.75;7766221;32;40025;-84
2022/03/26 06:56:45;;;;;;;17.95;8.10;;;;;;;10.22;39.67;100895.03;7765932;32;40132;-83
2022/03/26 07:01:01;;;;;;;22.35;9.60;;;;;;;10.16;39.17;100893.31;7766123;32;37960;-81
2022/03/26 07:05:18;;;;;;;23.15;9.40;;;;;;;10.38;38.64;100884.47;7765919;32;36998;-81
2022/03/26 07:09:34;;;;;;;19.85;8.73;;;;;;;10.80;38.76;100895.88;7751914;32;39416;-80
2022/03/26 07:13:50;;;;;;;18.98;8.93;;;;;;;11.09;37.90;100887.63;7765761;32;40031;-81
2022/03/26 07:18:06;;;;;;;16.15;8.27;;;;;;;11.52;37.65;100894.28;7765936;32;37905;-80
2022/03/26 07:22:22;;;;;;;21.08;8.23;;;;;;;11.77;36.40;100885.59;7765842;32;37062;-81
2022/03/26 07:26:38;;;;;;;14.60;8.32;;;;;;;11.91;36.23;100885.28;7765800;32;39203;-80
2022/03/26 07:30:54;;;;;;;16.77;7.72;;;;;;;11.92;35.73;100890.50;7765595;32;40050;-81
2022/03/26 07:35:11;;;;;;;17.50;8.60;;;;;;;12.47;35.74;100876.88;7750159;32;37877;-80
2022/03/26 07:39:27;;;;;;;20.30;9.55;;;;;;;13.06;37.81;100878.78;7738640;32;37224;-80
2022/03/26 07:43:43;;;;;;;24.65;9.60;;;;;;;13.08;34.80;100880.16;7738534;32;39302;-80
2022/03/26 07:47:59;;;;;;;20.02;9.02;;;;;;;13.27;34.57;100874.28;7738533;32;40774;-80
2022/03/26 07:52:16;;;;;;;15.70;8.88;;;;;;;12.75;35.21;100875.78;7738438;32;38687;-80
2022/03/26 07:56:32;;;;;;;21.83;9.85;;;;;;;12.88;37.50;100871.78;7724613;32;37985;-80
2022/03/26 08:00:49;;;;;;;18.50;10.00;;;;;;;12.94;35.26;100870.75;7738406;32;39252;-80
2022/03/26 08:05:06;;;;;;;21.17;10.85;;;;;;;13.32;33.81;100875.19;7738213;32;41243;-80
2022/03/26 08:09:22;;;;;;;17.87;10.13;;;;;;;13.49;33.66;100877.75;7738264;32;38861;-81
2022/03/26 08:13:39;;;;;;;27.00;9.95;;;;;;;13.90;33.42;100880.72;7738271;32;37901;-81
2022/03/26 08:17:54;;;;;;;20.30;10.57;;;;;;;13.82;33.03;100875.72;7737506;32;39425;-81
2022/03/26 08:22:11;;;;;;;24.58;10.73;;;;;;;13.95;32.77;100873.59;7738223;32;40860;-79
2022/03/26 08:26:29;;;;;;;29.90;11.40;;;;;;;14.25;32.64;100878.38;7738026;32;38091;-80
2022/03/26 08:30:45;;;;;;;29.52;11.05;;;;;;;14.48;32.02;100873.47;7738170;32;37065;-81
2022/03/26 08:35:01;;;;;;;28.17;12.10;;;;;;;14.52;31.69;100877.31;7738193;32;40066;-80
2022/03/26 08:39:21;;;;;;;18.20;11.10;;;;;;;14.48;31.37;100876.22;7737885;32;39612;-81
2022/03/26 08:43:37;;;;;;;22.42;11.15;;;;;;;14.83;29.65;100880.94;7737651;32;37725;-81
2022/03/26 08:47:54;;;;;;;21.92;11.68;;;;;;;14.74;28.73;100885.34;7737463;32;37904;-83
2022/03/26 08:52:10;;;;;;;23.80;11.52;;;;;;;14.78;28.46;100892.78;7723822;32;39190;-81
2022/03/26 08:56:26;;;;;;;25.58;13.00;;;;;;;14.89;28.35;100881.78;7737332;32;39986;-81
2022/03/26 09:00:42;;;;;;;21.70;12.35;;;;;;;15.07;27.84;100883.16;7737031;32;38774;-80
2022/03/26 09:04:58;;;;;;;25.92;12.88;;;;;;;15.13;27.38;100880.13;7737222;32;38060;-82
2022/03/26 09:09:16;;;;;;;29.30;12.57;;;;;;;15.19;27.49;100886.44;7737367;32;40198;-80
2022/03/26 09:13:32;;;;;;;23.35;12.07;;;;;;;15.10;27.74;100882.62;7737322;32;39703;-75
2022/03/26 09:17:48;;;;;;;26.25;13.00;;;;;;;15.18;27.77;100880.13;7737085;32;38074;-84
2022/03/26 09:22:04;;;;;;;30.65;11.90;;;;;;;15.02;29.31;100876.59;7737138;32;38194;-81
2022/03/26 09:26:20;;;;;;;21.40;11.75;;;;;;;15.51;28.09;100863.31;7737162;32;40170;-82
2022/03/26 09:30:36;;;;;;;25.40;11.60;;;;;;;15.66;27.73;100863.28;7736896;32;39738;-81
2022/03/26 09:34:52;;;;;;;24.95;11.50;;;;;;;15.38;28.67;100859.22;7736793;32;38144;-81
2022/03/26 09:39:09;;;;;;;22.23;11.35;;;;;;;15.93;28.14;100851.09;7736829;32;36985;-81
2022/03/26 09:43:28;;;;;;;22.25;10.80;;;;;;;16.12;27.62;100854.03;7736680;32;39396;-81
2022/03/26 09:47:44;;;;;;;21.90;9.98;;;;;;;15.85;27.96;100843.44;7730865;32;39679;-82
2022/03/26 09:52:05;;;;;;;20.33;10.43;;;;;;;16.63;26.90;100837.22;7743944;32;38810;-82
2022/03/26 09:56:22;;;;;;;23.92;11.80;;;;;;;16.77;26.63;100836.56;7744939;32;38005;-81
2022/03/26 10:00:38;;;;;;;24.45;11.93;;;;;;;17.42;25.16;100837.06;7726891;32;39207;-84
2022/03/26 10:04:54;;;;;;;22.42;10.90;;;;;;;17.01;25.66;100839.41;7735983;32;39887;-81
2022/03/26 10:09:10;;;;;;;22.42;10.45;;;;;;;17.40;25.20;100838.47;7735817;32;38996;-83
2022/03/26 10:13:42;;;;;;;19.62;10.07;;;;;;;17.92;25.19;100828.50;7735667;32;37227;-83
2022/03/26 10:18:09;;;;;;;17.45;10.10;;;;;;;19.13;22.34;100828.06;7735745;32;39071;-84
2022/03/26 10:22:39;;;;;;;25.05;11.00;;;;;;;18.90;22.35;100818.78;7735594;32;39969;-83
2022/03/26 10:27:09;;;;;;;26.27;10.50;;;;;;;18.62;21.72;100817.84;7735462;32;38653;-83
2022/03/26 10:36:05;;;;;;;23.73;10.45;;;;;;;19.52;20.34;100801.84;7735307;32;39428;-82
2022/03/26 10:40:24;;;;;;;21.85;10.73;;;;;;;20.57;18.28;100794.59;7735966;32;40989;-82
2022/03/26 10:44:41;;;;;;;23.38;11.80;;;;;;;21.20;17.48;100793.53;7737606;32;38031;-73
2022/03/26 10:49:03;;;;;;;24.40;11.57;;;;;;;19.48;18.72;100793.37;7738943;32;37527;-75
2022/03/26 10:53:19;;;;;;;21.92;10.65;;;;;;;20.35;18.49;100795.38;7739011;32;39158;-76
2022/03/26 10:57:35;;;;;;;21.42;11.52;;;;;;;20.37;19.01;100787.56;7743658;32;40615;-75
2022/03/26 11:01:52;;;;;;;20.00;11.55;;;;;;;20.34;18.48;100780.72;7765844;32;38674;-76
2022/03/26 11:06:10;;;;;;;21.60;11.30;;;;;;;20.48;18.56;100777.91;7765909;32;37939;-79
2022/03/26 11:10:29;;;;;;;23.87;10.07;;;;;;;20.31;18.85;100777.78;7764117;32;39349;-76
2022/03/26 11:14:47;;;;;;;17.15;9.13;;;;;;;19.98;20.00;100769.66;7750363;32;39551;-77
2022/03/26 11:19:37;;;;;;;17.90;8.80;;;;;;;20.31;19.54;100770.28;7765396;32;38881;-77
2022/03/26 11:24:16;;;;;;;19.45;8.13;;;;;;;20.35;19.58;100751.91;7753984;32;37070;-77
2022/03/26 11:28:51;;;;;;;16.92;8.50;;;;;;;21.68;17.05;100744.75;7765651;32;39428;-80
2022/03/26 11:33:17;;;;;;;19.50;9.50;;;;;;;21.66;17.78;100738.72;7765510;32;39912;-78
2022/03/26 11:37:33;;;;;;;20.62;9.18;;;;;;;22.48;16.47;100729.78;7765471;32;37885;-77
2022/03/26 11:41:52;;;;;;;19.75;10.27;;;;;;;22.85;13.23;100719.88;7765502;32;37332;-77
2022/03/26 11:50:48;;;;;;;19.80;10.02;;;;;;;22.22;14.82;100710.34;7765172;32;39964;-76
2022/03/26 11:55:16;;;;;;;18.85;10.23;;;;;;;22.74;14.71;100701.91;7764394;32;37771;-74
2022/03/26 11:59:35;;;;;;;21.20;10.70;;;;;;;20.71;15.59;100714.19;7765014;32;38074;-76
2022/03/26 12:03:51;;;;;;;19.92;10.57;;;;;;;21.00;15.35;100697.06;7751867;32;38904;-77
2022/03/26 12:08:18;;;;;;;21.85;10.93;;;;;;;21.00;15.87;100692.31;7765225;32;40876;-74
2022/03/26 12:12:58;;;;;;;26.00;10.75;;;;;;;21.21;14.76;100697.28;7764968;32;38010;-79
2022/03/26 12:17:34;;;;;;;21.77;9.95;;;;;;;22.16;14.46;100684.66;7764943;32;37322;-79
2022/03/26 12:21:50;;;;;;;20.30;9.43;;;;;;;22.96;13.19;100680.59;7753397;32;39224;-78
2022/03/26 12:26:07;;;;;;;22.55;10.45;;;;;;;24.19;12.50;100675.81;7765075;32;40946;-79
2022/03/26 12:30:24;;;;;;;22.17;10.65;;;;;;;24.54;12.35;100651.25;7751089;32;38379;-75
2022/03/26 12:34:59;;;;;;;24.35;10.82;;;;;;;25.14;12.36;100638.81;7764946;32;38015;-76
2022/03/26 12:39:15;;;;;;;24.52;10.60;;;;;;;25.31;12.34;100646.97;7765030;32;39346;-76
2022/03/26 12:43:31;;;;;;;20.17;10.45;;;;;;;24.80;12.35;100640.91;7764828;32;39937;-75
2022/03/26 12:47:48;;;;;;;20.85;11.68;;;;;;;24.68;12.51;100627.78;7764781;32;37995;-77
2022/03/26 12:52:06;;;;;;;25.98;11.52;;;;;;;23.93;13.05;100643.47;7764818;32;37239;-75
2022/03/26 12:56:22;;;;;;;25.90;11.15;;;;;;;22.59;13.50;100636.56;7764473;32;39255;-76
2022/03/26 13:00:39;;;;;;;21.67;10.98;;;;;;;24.31;12.19;100616.53;7750499;32;40475;-79
2022/03/26 13:04:55;;;;;;;24.35;11.98;;;;;;;24.27;11.72;100618.41;7763932;32;38089;-76
2022/03/26 13:09:11;;;;;;;23.60;11.57;;;;;;;23.46;13.01;100617.78;7764324;32;37209;-71
2022/03/26 13:13:29;;;;;;;22.13;10.82;;;;;;;23.32;11.43;100612.50;7764291;32;40005;-76
2022/03/26 13:17:46;;;;;;;21.33;11.85;;;;;;;23.77;11.82;100600.69;7750173;32;41177;-76
2022/03/26 13:22:03;;;;;;;18.62;10.05;;;;;;;24.14;11.92;100589.69;7748733;32;38749;-73
2022/03/26 13:26:19;;;;;;;22.37;10.68;;;;;;;23.97;11.45;100588.72;7749366;32;37280;-70
2022/03/26 13:30:35;;;;;;;19.58;9.30;;;;;;;23.54;11.09;100589.91;7737994;32;39465;-74
2022/03/26 13:34:52;;;;;;;21.52;10.77;;;;;;;22.78;11.89;100588.09;7736579;32;40802;-73
2022/03/26 13:39:27;;;;;;;19.70;10.27;;;;;;;22.74;11.54;100587.97;7736539;32;37897;-79
2022/03/26 13:43:44;;;;;;;22.40;10.93;;;;;;;22.83;11.79;100577.59;7736377;32;38057;-78
2022/03/26 13:48:00;;;;;;;25.48;10.27;;;;;;;23.18;11.96;100573.81;7736311;32;39951;-79
2022/03/26 13:52:34;;;;;;;47.20;12.77;;;;;;;24.08;10.92;100577.16;7736123;32;40593;-81
2022/03/26 13:56:54;;;;;;;22.67;11.80;;;;;;;24.12;12.04;100561.38;7735802;32;38883;-79
2022/03/26 14:01:10;;;;;;;24.33;11.52;;;;;;;24.21;13.10;100553.72;7745703;32;37906;-76
2022/03/26 14:05:29;;;;;;;22.00;11.60;;;;;;;22.87;13.06;100553.56;7763033;32;40191;-79
2022/03/26 14:09:55;;;;;;;22.75;11.75;;;;;;;22.68;12.79;100550.41;7763150;32;39812;-80
2022/03/26 14:14:11;;;;;;;22.87;10.77;;;;;;;23.72;11.97;100545.22;7762945;32;38050;-78
2022/03/26 14:18:27;;;;;;;25.33;9.07;;;;;;;23.76;10.95;100529.44;7766253;32;37972;-77
2022/03/26 14:22:43;;;;;;;19.55;9.57;;;;;;;23.77;10.07;100536.66;7766702;32;40287;-79
2022/03/26 14:26:59;;;;;;;22.90;10.68;;;;;;;24.18;9.91;100534.91;7766429;32;40794;-79
2022/03/26 14:31:15;;;;;;;18.45;8.32;;;;;;;23.67;9.83;100525.97;7766345;32;37856;-78
2022/03/26 14:35:32;;;;;;;20.37;10.07;;;;;;;23.08;10.65;100532.50;7766369;32;37029;-78
2022/03/26 14:39:48;;;;;;;18.87;9.95;;;;;;;23.83;10.46;100526.94;7765291;32;39882;-78
2022/03/26 14:44:04;;;;;;;20.20;9.05;;;;;;;24.41;9.72;100534.50;7765236;32;40605;-77
2022/03/26 14:48:20;;;;;;;18.08;9.05;;;;;;;24.36;10.45;100522.41;7765229;32;38693;-77
2022/03/26 14:52:38;;;;;;;22.40;8.73;;;;;;;23.84;9.93;100527.78;7766107;32;37180;-80
2022/03/26 14:56:54;;;;;;;21.75;9.82;;;;;;;23.05;10.04;100531.19;7765933;32;39213;-80
2022/03/26 15:01:11;;;;;;;19.90;8.60;;;;;;;22.22;10.69;100530.62;7759575;32;39916;-80
2022/03/26 15:05:27;;;;;;;17.60;8.82;;;;;;;22.55;10.93;100523.66;7765830;32;38748;-79
2022/03/26 15:09:43;;;;;;;19.83;10.05;;;;;;;22.87;10.82;100520.19;7766029;32;37329;-79
2022/03/26 15:13:59;;;;;;;15.90;8.55;;;;;;;23.35;10.52;100522.78;7765909;32;39476;-81
2022/03/26 15:18:15;;;;;;;20.10;8.75;;;;;;;23.07;10.78;100512.22;7765762;32;39880;-80
2022/03/26 15:22:31;;;;;;;17.00;9.05;;;;;;;23.10;9.80;100514.34;7765815;32;37900;-81
2022/03/26 15:26:48;;;;;;;19.60;8.75;;;;;;;22.57;10.61;100518.56;7765785;32;37369;-79
2022/03/26 15:31:04;;;;;;;18.98;9.07;;;;;;;22.56;10.85;100517.78;7765919;32;39922;-79
2022/03/26 15:35:20;;;;;;;20.95;8.45;;;;;;;22.43;11.10;100516.03;7765702;32;40936;-78
2022/03/26 15:39:37;;;;;;;16.70;8.30;;;;;;;22.19;11.66;100528.50;7765572;32;37977;-76
2022/03/26 15:43:53;;;;;;;20.05;8.80;;;;;;;21.93;11.56;100521.06;7765715;32;37093;-83
2022/03/26 15:48:09;;;;;;;22.08;9.68;;;;;;;21.97;11.98;100535.09;7765561;32;39327;-77
2022/03/26 15:52:27;;;;;;;20.02;9.57;;;;;;;21.90;12.37;100537.59;7765495;32;39901;-78
2022/03/26 15:56:43;;;;;;;18.20;9.50;;;;;;;21.93;12.85;100534.16;7765203;32;38818;-77
2022/03/26 16:00:59;;;;;;;18.10;9.60;;;;;;;22.29;12.38;100535.69;7765401;32;37217;-77
2022/03/26 16:05:15;;;;;;;18.55;9.43;;;;;;;21.48;13.17;100531.78;7765409;32;39255;-78
2022/03/26 16:09:31;;;;;;;21.87;9.38;;;;;;;20.87;13.40;100540.84;7765284;32;40714;-79
2022/03/26 16:13:48;;;;;;;18.33;9.70;;;;;;;23.15;11.67;100519.69;7765171;32;38664;-78
2022/03/26 16:18:04;;;;;;;16.17;9.23;;;;;;;23.18;11.19;100523.75;7765132;32;36935;-75
2022/03/26 16:22:20;;;;;;;21.60;9.80;;;;;;;24.26;10.54;100528.41;7765291;32;39539;-74
2022/03/26 16:26:37;;;;;;;21.98;9.43;;;;;;;23.24;11.24;100527.97;7765087;32;40733;-75
2022/03/26 16:30:54;;;;;;;18.87;9.35;;;;;;;23.99;10.77;100527.94;7764604;32;38715;-75
2022/03/26 16:35:10;;;;;;;22.40;10.60;;;;;;;23.33;11.10;100520.34;7765117;32;37145;-75
2022/03/26 16:39:27;;;;;;;22.13;10.38;;;;;;;22.29;12.16;100519.03;7764078;32;40048;-74
2022/03/26 16:43:43;;;;;;;21.87;10.00;;;;;;;22.01;12.29;100518.59;7764454;32;40846;-73
2022/03/26 16:48:00;;;;;;;21.90;10.55;;;;;;;21.99;12.40;100521.75;7764370;32;38826;-74
2022/03/26 16:52:17;;;;;;;19.25;10.88;;;;;;;20.29;13.79;100530.84;7764513;32;37006;-73
2022/03/26 16:56:36;;;;;;;25.45;12.13;;;;;;;20.31;14.04;100532.16;7764284;32;39464;-74
2022/03/26 17:00:53;;;;;;;25.08;12.10;;;;;;;19.28;14.95;100533.91;7764024;32;39844;-73
2022/03/26 17:05:09;;;;;;;30.08;14.20;;;;;;;18.46;15.95;100536.47;7764191;32;38803;-74
2022/03/26 17:09:26;;;;;;;34.53;12.82;;;;;;;18.58;15.90;100535.97;7764076;32;37930;-74
2022/03/26 17:13:42;;;;;;;21.80;10.48;;;;;;;18.08;16.36;100533.09;7763999;32;39168;-74
2022/03/26 17:17:58;;;;;;;30.48;11.88;;;;;;;18.36;16.27;100534.72;7763878;32;40002;-74
2022/03/26 17:22:14;;;;;;;23.38;11.25;;;;;;;17.83;16.86;100532.37;7763851;32;37936;-73
2022/03/26 17:26:33;;;;;;;26.52;11.80;;;;;;;17.96;16.72;100537.12;7763938;32;37151;-72
2022/03/26 17:30:49;;;;;;;28.95;12.27;;;;;;;17.78;16.93;100532.47;7763832;32;38547;-73
2022/03/26 17:35:07;;;;;;;26.65;11.15;;;;;;;17.59;17.24;100540.78;7763911;32;39936;-72
2022/03/26 17:39:23;;;;;;;19.45;10.38;;;;;;;17.77;17.21;100544.63;7763845;32;37777;-73
2022/03/26 17:43:40;;;;;;;23.27;10.35;;;;;;;17.72;17.28;100542.75;7762999;32;37165;-73
2022/03/26 17:47:56;;;;;;;26.70;10.27;;;;;;;17.51;17.64;100545.03;7763700;32;39284;-71
2022/03/26 17:52:12;;;;;;;20.27;9.10;;;;;;;17.25;17.84;100550.94;7765439;32;40084;-72
2022/03/26 17:56:30;;;;;;;17.60;9.60;;;;;;;17.41;17.79;100558.97;7766482;32;38028;-72
2022/03/26 18:00:49;;;;;;;21.62;10.07;;;;;;;17.18;17.85;100568.97;7766436;32;38047;-72
2022/03/26 18:05:09;;;;;;;22.80;10.43;;;;;;;17.33;17.96;100571.47;7766662;32;39323;-72
2022/03/26 18:09:26;;;;;;;22.48;10.00;;;;;;;17.40;17.82;100574.72;7766372;32;40821;-72
2022/03/26 18:13:42;;;;;;;28.90;9.98;;;;;;;17.22;18.12;100573.56;7744662;32;37911;-73
2022/03/26 18:17:59;;;;;;;19.27;8.32;;;;;;;17.26;18.20;100568.28;7752124;32;37135;-72
2022/03/26 18:22:16;;;;;;;20.05;8.70;;;;;;;17.10;18.27;100575.13;7742469;32;39405;-72
2022/03/26 18:26:32;;;;;;;20.85;8.95;;;;;;;17.01;18.58;100583.25;7725649;32;39867;-72
2022/03/26 18:30:48;;;;;;;16.77;7.97;;;;;;;16.77;19.16;100586.00;7745481;32;38684;-73
2022/03/26 18:35:05;;;;;;;18.25;8.27;;;;;;;16.82;19.27;100586.75;7756712;32;36595;-72
2022/03/26 18:39:22;;;;;;;20.25;8.75;;;;;;;16.53;19.63;100593.13;7763402;32;39350;-72
2022/03/26 18:43:38;;;;;;;21.77;9.27;;;;;;;16.48;19.29;100590.44;7725029;32;40748;-72
2022/03/26 18:47:54;;;;;;;22.20;9.30;;;;;;;16.59;19.33;100593.06;7738275;32;37878;-73
2022/03/26 18:52:13;;;;;;;21.50;8.38;;;;;;;16.30;19.87;100591.19;7737902;32;37241;-72
2022/03/26 18:56:32;;;;;;;19.33;9.57;;;;;;;16.20;20.20;100591.28;7739103;32;39802;-73
2022/03/26 19:00:48;;;;;;;24.50;9.68;;;;;;;15.96;20.57;100592.87;7753228;32;38056;-73
2022/03/26 19:05:05;;;;;;;20.15;9.70;;;;;;;15.94;20.72;100589.59;7738157;32;38047;-73
2022/03/26 19:09:21;;;;;;;23.00;9.93;;;;;;;15.73;21.22;100597.16;7738413;32;37066;-72
2022/03/26 19:13:37;;;;;;;24.87;10.05;;;;;;;15.80;21.02;100590.53;7738566;32;39306;-72
2022/03/26 19:17:53;;;;;;;23.50;9.63;;;;;;;15.84;20.83;100589.66;7737793;32;39895;-72
2022/03/26 19:22:09;;;;;;;29.80;10.23;;;;;;;15.75;21.01;100592.22;7738242;32;38008;-72
2022/03/26 19:26:26;;;;;;;24.63;11.12;;;;;;;15.64;21.31;100601.59;7738364;32;35433;-73
2022/03/26 19:30:43;;;;;;;23.42;11.43;;;;;;;15.51;21.40;100592.09;7738254;32;40157;-72
2022/03/26 19:34:59;;;;;;;21.02;9.55;;;;;;;15.34;21.57;100597.97;7738264;32;40045;-72
2022/03/26 19:39:16;;;;;;;24.23;10.48;;;;;;;15.60;21.15;100603.28;7737493;32;38003;-71
2022/03/26 19:43:36;;;;;;;30.30;11.20;;;;;;;15.44;21.74;100596.28;7737773;32;36158;-72
2022/03/26 19:47:57;;;;;;;26.00;10.97;;;;;;;15.43;21.71;100594.62;7737340;32;39177;-72